sensor_id;sensor_type;location;lat;lon;timestamp;P1;durP1;ratioP1;P2;durP2;ratioP2
80257;SDS011;69565;37.974;23.708;2023-05-07T00:01:49;1.70;;;0.80;;
80257;SDS011;69565;37.974;23.708;2023-05-07T00:04:15;0.93;;;0.70;;
80257;SDS011;69565;37.974;23.708;2023-05-07T00:06:40;1.05;;;0.70;;
80257;SDS011;69565;37.974;23.708;2023-05-07T00:09:06;1.00;;;0.70;;
80257;SDS011;69565;37.974;23.708;2023-05-07T00:11:33;1.13;;;0.80;;
80257;SDS011;69565;37.974;23.708;2023-05-07T00:13:59;2.83;;;0.90;;
80257;SDS011;69565;37.974;23.708;2023-05-07T00:16:24;2.83;;;0.90;;
80257;SDS011;69565;37.974;23.708;2023-05-07T00:18:50;1.38;;;0.90;;
80257;SDS011;69565;37.974;23.708;2023-05-07T00:21:17;3.72;;;0.93;;
80257;SDS011;69565;37.974;23.708;2023-05-07T00:23:42;1.38;;;0.77;;
80257;SDS011;69565;37.974;23.708;2023-05-07T00:26:08;1.90;;;0.90;;
80257;SDS011;69565;37.974;23.708;2023-05-07T00:28:34;1.02;;;0.73;;
80257;SDS011;69565;37.974;23.708;2023-05-07T00:30:59;1.10;;;0.80;;
80257;SDS011;69565;37.974;23.708;2023-05-07T00:33:25;1.17;;;0.80;;
80257;SDS011;69565;37.974;23.708;2023-05-07T00:35:52;1.10;;;0.80;;
80257;SDS011;69565;37.974;23.708;2023-05-07T00:38:19;1.20;;;0.90;;
80257;SDS011;69565;37.974;23.708;2023-05-07T00:40:45;1.45;;;0.80;;
80257;SDS011;69565;37.974;23.708;2023-05-07T00:43:11;1.80;;;0.90;;
80257;SDS011;69565;37.974;23.708;2023-05-07T00:45:37;1.50;;;0.85;;
80257;SDS011;69565;37.974;23.708;2023-05-07T00:48:03;1.10;;;0.80;;
80257;SDS011;69565;37.974;23.708;2023-05-07T00:50:30;1.98;;;0.90;;
80257;SDS011;69565;37.974;23.708;2023-05-07T00:52:57;1.30;;;0.80;;
80257;SDS011;69565;37.974;23.708;2023-05-07T00:55:24;1.00;;;0.70;;
80257;SDS011;69565;37.974;23.708;2023-05-07T00:57:50;1.20;;;0.80;;
80257;SDS011;69565;37.974;23.708;2023-05-07T01:00:16;1.85;;;0.77;;
80257;SDS011;69565;37.974;23.708;2023-05-07T01:02:43;1.27;;;0.90;;
80257;SDS011;69565;37.974;23.708;2023-05-07T01:05:09;1.90;;;0.90;;
80257;SDS011;69565;37.974;23.708;2023-05-07T01:07:38;2.03;;;0.80;;
80257;SDS011;69565;37.974;23.708;2023-05-07T01:10:06;2.20;;;0.75;;
80257;SDS011;69565;37.974;23.708;2023-05-07T01:12:33;2.75;;;0.80;;
80257;SDS011;69565;37.974;23.708;2023-05-07T01:15:00;1.30;;;0.88;;
80257;SDS011;69565;37.974;23.708;2023-05-07T01:17:28;1.65;;;0.77;;
80257;SDS011;69565;37.974;23.708;2023-05-07T01:19:54;1.10;;;0.80;;
80257;SDS011;69565;37.974;23.708;2023-05-07T01:22:32;1.48;;;0.90;;
80257;SDS011;69565;37.974;23.708;2023-05-07T01:25:01;2.28;;;0.82;;
80257;SDS011;69565;37.974;23.708;2023-05-07T01:27:27;1.63;;;0.98;;
80257;SDS011;69565;37.974;23.708;2023-05-07T01:29:53;1.20;;;0.80;;
80257;SDS011;69565;37.974;23.708;2023-05-07T01:32:21;1.15;;;0.80;;
80257;SDS011;69565;37.974;23.708;2023-05-07T01:35:13;1.60;;;0.90;;
80257;SDS011;69565;37.974;23.708;2023-05-07T01:37:43;2.00;;;1.00;;
80257;SDS011;69565;37.974;23.708;2023-05-07T01:40:09;1.10;;;0.80;;
80257;SDS011;69565;37.974;23.708;2023-05-07T01:42:35;1.55;;;0.90;;
80257;SDS011;69565;37.974;23.708;2023-05-07T01:45:01;1.10;;;0.80;;
80257;SDS011;69565;37.974;23.708;2023-05-07T01:47:27;1.10;;;0.80;;
80257;SDS011;69565;37.974;23.708;2023-05-07T01:49:55;1.30;;;0.80;;
80257;SDS011;69565;37.974;23.708;2023-05-07T01:52:21;1.40;;;0.85;;
80257;SDS011;69565;37.974;23.708;2023-05-07T01:54:47;1.70;;;0.80;;
80257;SDS011;69565;37.974;23.708;2023-05-07T01:57:12;1.20;;;0.90;;
80257;SDS011;69565;37.974;23.708;2023-05-07T01:59:38;1.08;;;0.82;;
80257;SDS011;69565;37.974;23.708;2023-05-07T02:02:04;0.95;;;0.82;;
80257;SDS011;69565;37.974;23.708;2023-05-07T02:04:30;1.38;;;0.82;;
80257;SDS011;69565;37.974;23.708;2023-05-07T02:06:55;1.17;;;0.80;;
80257;SDS011;69565;37.974;23.708;2023-05-07T02:09:21;1.67;;;0.90;;
80257;SDS011;69565;37.974;23.708;2023-05-07T02:11:48;1.30;;;0.80;;
80257;SDS011;69565;37.974;23.708;2023-05-07T02:14:13;1.10;;;0.80;;
80257;SDS011;69565;37.974;23.708;2023-05-07T02:16:40;1.70;;;0.80;;
80257;SDS011;69565;37.974;23.708;2023-05-07T02:19:06;1.60;;;0.90;;
80257;SDS011;69565;37.974;23.708;2023-05-07T02:21:32;1.85;;;0.85;;
80257;SDS011;69565;37.974;23.708;2023-05-07T02:23:58;1.33;;;0.80;;
80257;SDS011;69565;37.974;23.708;2023-05-07T02:26:23;1.23;;;0.90;;
80257;SDS011;69565;37.974;23.708;2023-05-07T02:28:50;1.10;;;0.80;;
80257;SDS011;69565;37.974;23.708;2023-05-07T02:31:17;1.30;;;0.75;;
80257;SDS011;69565;37.974;23.708;2023-05-07T02:33:42;1.30;;;0.85;;
80257;SDS011;69565;37.974;23.708;2023-05-07T02:36:08;1.13;;;0.80;;
80257;SDS011;69565;37.974;23.708;2023-05-07T02:38:35;0.93;;;0.70;;
80257;SDS011;69565;37.974;23.708;2023-05-07T02:41:01;1.17;;;0.80;;
80257;SDS011;69565;37.974;23.708;2023-05-07T02:43:27;1.08;;;0.70;;
80257;SDS011;69565;37.974;23.708;2023-05-07T02:46:11;2.25;;;0.80;;
80257;SDS011;69565;37.974;23.708;2023-05-07T02:48:36;1.30;;;0.80;;
80257;SDS011;69565;37.974;23.708;2023-05-07T02:51:02;1.20;;;0.70;;
80257;SDS011;69565;37.974;23.708;2023-05-07T02:53:29;1.13;;;0.70;;
80257;SDS011;69565;37.974;23.708;2023-05-07T02:55:55;1.38;;;0.90;;
80257;SDS011;69565;37.974;23.708;2023-05-07T02:58:22;1.00;;;0.70;;
80257;SDS011;69565;37.974;23.708;2023-05-07T03:00:48;2.42;;;0.80;;
80257;SDS011;69565;37.974;23.708;2023-05-07T03:03:14;1.60;;;0.80;;
80257;SDS011;69565;37.974;23.708;2023-05-07T03:05:40;1.83;;;0.90;;
80257;SDS011;69565;37.974;23.708;2023-05-07T03:08:06;1.20;;;0.90;;
80257;SDS011;69565;37.974;23.708;2023-05-07T03:10:32;1.23;;;0.80;;
80257;SDS011;69565;37.974;23.708;2023-05-07T03:12:58;2.17;;;0.90;;
80257;SDS011;69565;37.974;23.708;2023-05-07T03:15:24;1.20;;;0.80;;
80257;SDS011;69565;37.974;23.708;2023-05-07T03:17:50;1.23;;;0.80;;
80257;SDS011;69565;37.974;23.708;2023-05-07T03:20:16;1.33;;;0.82;;
80257;SDS011;69565;37.974;23.708;2023-05-07T03:22:42;1.50;;;0.88;;
80257;SDS011;69565;37.974;23.708;2023-05-07T03:25:08;1.55;;;0.90;;
80257;SDS011;69565;37.974;23.708;2023-05-07T03:27:34;1.75;;;0.90;;
80257;SDS011;69565;37.974;23.708;2023-05-07T03:30:00;0.88;;;0.70;;
80257;SDS011;69565;37.974;23.708;2023-05-07T03:32:26;1.67;;;0.80;;
80257;SDS011;69565;37.974;23.708;2023-05-07T03:34:52;1.20;;;0.75;;
80257;SDS011;69565;37.974;23.708;2023-05-07T03:37:18;1.10;;;0.80;;
80257;SDS011;69565;37.974;23.708;2023-05-07T03:39:44;3.60;;;0.80;;
80257;SDS011;69565;37.974;23.708;2023-05-07T03:42:09;1.13;;;0.80;;
80257;SDS011;69565;37.974;23.708;2023-05-07T03:44:35;1.58;;;0.70;;
80257;SDS011;69565;37.974;23.708;2023-05-07T03:47:01;1.35;;;0.82;;
80257;SDS011;69565;37.974;23.708;2023-05-07T03:49:28;1.60;;;0.90;;
80257;SDS011;69565;37.974;23.708;2023-05-07T03:51:53;1.48;;;0.85;;
80257;SDS011;69565;37.974;23.708;2023-05-07T03:54:19;1.73;;;0.75;;
80257;SDS011;69565;37.974;23.708;2023-05-07T03:56:45;1.35;;;0.70;;
80257;SDS011;69565;37.974;23.708;2023-05-07T03:59:11;1.00;;;0.70;;
80257;SDS011;69565;37.974;23.708;2023-05-07T04:01:38;1.65;;;0.70;;
80257;SDS011;69565;37.974;23.708;2023-05-07T04:04:03;1.05;;;0.80;;
80257;SDS011;69565;37.974;23.708;2023-05-07T04:06:30;1.30;;;0.73;;
80257;SDS011;69565;37.974;23.708;2023-05-07T04:08:56;1.08;;;0.70;;
80257;SDS011;69565;37.974;23.708;2023-05-07T04:11:21;1.48;;;0.82;;
80257;SDS011;69565;37.974;23.708;2023-05-07T04:13:47;1.90;;;0.70;;
80257;SDS011;69565;37.974;23.708;2023-05-07T04:16:13;1.08;;;0.70;;
80257;SDS011;69565;37.974;23.708;2023-05-07T04:18:39;1.08;;;0.63;;
80257;SDS011;69565;37.974;23.708;2023-05-07T04:21:05;3.38;;;0.70;;
80257;SDS011;69565;37.974;23.708;2023-05-07T04:23:31;1.42;;;0.80;;
80257;SDS011;69565;37.974;23.708;2023-05-07T04:25:56;1.23;;;0.70;;
80257;SDS011;69565;37.974;23.708;2023-05-07T04:28:22;1.38;;;0.80;;
80257;SDS011;69565;37.974;23.708;2023-05-07T04:30:49;2.15;;;0.60;;
80257;SDS011;69565;37.974;23.708;2023-05-07T04:33:14;1.17;;;0.63;;
80257;SDS011;69565;37.974;23.708;2023-05-07T04:35:43;2.03;;;0.70;;
80257;SDS011;69565;37.974;23.708;2023-05-07T04:38:09;1.77;;;0.65;;
80257;SDS011;69565;37.974;23.708;2023-05-07T04:40:38;1.25;;;0.60;;
80257;SDS011;69565;37.974;23.708;2023-05-07T04:43:04;1.35;;;0.60;;
80257;SDS011;69565;37.974;23.708;2023-05-07T04:45:29;1.05;;;0.55;;
80257;SDS011;69565;37.974;23.708;2023-05-07T04:47:55;1.10;;;0.68;;
80257;SDS011;69565;37.974;23.708;2023-05-07T04:50:21;5.72;;;0.68;;
80257;SDS011;69565;37.974;23.708;2023-05-07T04:52:49;1.33;;;0.60;;
80257;SDS011;69565;37.974;23.708;2023-05-07T04:55:15;2.35;;;0.60;;
80257;SDS011;69565;37.974;23.708;2023-05-07T04:57:41;0.90;;;0.55;;
80257;SDS011;69565;37.974;23.708;2023-05-07T05:00:07;0.80;;;0.60;;
80257;SDS011;69565;37.974;23.708;2023-05-07T05:02:36;1.17;;;0.52;;
80257;SDS011;69565;37.974;23.708;2023-05-07T05:05:02;1.60;;;0.65;;
80257;SDS011;69565;37.974;23.708;2023-05-07T05:07:28;2.05;;;0.57;;
80257;SDS011;69565;37.974;23.708;2023-05-07T05:09:54;0.90;;;0.60;;
80257;SDS011;69565;37.974;23.708;2023-05-07T05:12:20;1.80;;;0.55;;
80257;SDS011;69565;37.974;23.708;2023-05-07T05:14:46;0.60;;;0.50;;
80257;SDS011;69565;37.974;23.708;2023-05-07T05:17:12;3.72;;;0.70;;
80257;SDS011;69565;37.974;23.708;2023-05-07T05:19:37;0.90;;;0.60;;
80257;SDS011;69565;37.974;23.708;2023-05-07T05:22:03;0.82;;;0.52;;
80257;SDS011;69565;37.974;23.708;2023-05-07T05:24:29;1.90;;;0.50;;
80257;SDS011;69565;37.974;23.708;2023-05-07T05:26:56;3.15;;;0.73;;
80257;SDS011;69565;37.974;23.708;2023-05-07T05:29:21;2.33;;;0.60;;
80257;SDS011;69565;37.974;23.708;2023-05-07T05:31:47;1.42;;;0.60;;
80257;SDS011;69565;37.974;23.708;2023-05-07T05:34:13;0.77;;;0.50;;
80257;SDS011;69565;37.974;23.708;2023-05-07T05:36:39;0.80;;;0.60;;
80257;SDS011;69565;37.974;23.708;2023-05-07T05:39:05;0.88;;;0.52;;
80257;SDS011;69565;37.974;23.708;2023-05-07T05:41:31;1.15;;;0.60;;
80257;SDS011;69565;37.974;23.708;2023-05-07T05:43:56;1.33;;;0.60;;
80257;SDS011;69565;37.974;23.708;2023-05-07T05:46:22;0.90;;;0.60;;
80257;SDS011;69565;37.974;23.708;2023-05-07T05:48:48;1.98;;;0.70;;
80257;SDS011;69565;37.974;23.708;2023-05-07T05:51:13;0.82;;;0.50;;
80257;SDS011;69565;37.974;23.708;2023-05-07T05:53:39;0.82;;;0.50;;
80257;SDS011;69565;37.974;23.708;2023-05-07T05:56:05;1.15;;;0.60;;
80257;SDS011;69565;37.974;23.708;2023-05-07T05:58:31;1.85;;;0.60;;
80257;SDS011;69565;37.974;23.708;2023-05-07T06:00:57;1.25;;;0.50;;
80257;SDS011;69565;37.974;23.708;2023-05-07T06:03:23;0.70;;;0.50;;
80257;SDS011;69565;37.974;23.708;2023-05-07T06:05:49;1.15;;;0.47;;
80257;SDS011;69565;37.974;23.708;2023-05-07T06:08:15;1.08;;;0.50;;
80257;SDS011;69565;37.974;23.708;2023-05-07T06:10:40;0.75;;;0.40;;
80257;SDS011;69565;37.974;23.708;2023-05-07T06:13:06;1.15;;;0.50;;
80257;SDS011;69565;37.974;23.708;2023-05-07T06:15:32;2.05;;;0.50;;
80257;SDS011;69565;37.974;23.708;2023-05-07T06:17:58;1.23;;;0.52;;
80257;SDS011;69565;37.974;23.708;2023-05-07T06:20:24;0.50;;;0.40;;
80257;SDS011;69565;37.974;23.708;2023-05-07T06:22:49;0.98;;;0.50;;
80257;SDS011;69565;37.974;23.708;2023-05-07T06:25:15;1.20;;;0.50;;
80257;SDS011;69565;37.974;23.708;2023-05-07T06:27:41;2.83;;;0.52;;
80257;SDS011;69565;37.974;23.708;2023-05-07T06:30:07;0.85;;;0.40;;
80257;SDS011;69565;37.974;23.708;2023-05-07T06:32:33;0.60;;;0.40;;
80257;SDS011;69565;37.974;23.708;2023-05-07T06:34:58;0.60;;;0.40;;
80257;SDS011;69565;37.974;23.708;2023-05-07T06:37:25;0.55;;;0.40;;
80257;SDS011;69565;37.974;23.708;2023-05-07T06:39:50;2.25;;;0.50;;
80257;SDS011;69565;37.974;23.708;2023-05-07T06:42:16;1.15;;;0.50;;
80257;SDS011;69565;37.974;23.708;2023-05-07T06:44:42;1.48;;;0.50;;
80257;SDS011;69565;37.974;23.708;2023-05-07T06:47:07;2.30;;;0.50;;
80257;SDS011;69565;37.974;23.708;2023-05-07T06:49:33;0.70;;;0.50;;
80257;SDS011;69565;37.974;23.708;2023-05-07T06:51:59;0.80;;;0.50;;
80257;SDS011;69565;37.974;23.708;2023-05-07T06:54:25;1.08;;;0.43;;
80257;SDS011;69565;37.974;23.708;2023-05-07T06:56:50;0.47;;;0.35;;
80257;SDS011;69565;37.974;23.708;2023-05-07T06:59:16;1.75;;;0.40;;
80257;SDS011;69565;37.974;23.708;2023-05-07T07:01:42;1.27;;;0.50;;
80257;SDS011;69565;37.974;23.708;2023-05-07T07:04:07;1.05;;;0.40;;
80257;SDS011;69565;37.974;23.708;2023-05-07T07:06:33;2.05;;;0.40;;
80257;SDS011;69565;37.974;23.708;2023-05-07T07:08:59;1.33;;;0.50;;
80257;SDS011;69565;37.974;23.708;2023-05-07T07:11:25;6.00;;;0.50;;
80257;SDS011;69565;37.974;23.708;2023-05-07T07:13:51;2.88;;;0.50;;
80257;SDS011;69565;37.974;23.708;2023-05-07T07:16:19;0.95;;;0.40;;
80257;SDS011;69565;37.974;23.708;2023-05-07T07:18:45;1.88;;;0.40;;
80257;SDS011;69565;37.974;23.708;2023-05-07T07:21:11;1.83;;;0.40;;
80257;SDS011;69565;37.974;23.708;2023-05-07T07:23:37;2.88;;;0.40;;
80257;SDS011;69565;37.974;23.708;2023-05-07T07:26:02;0.95;;;0.40;;
80257;SDS011;69565;37.974;23.708;2023-05-07T07:28:28;1.55;;;0.40;;
80257;SDS011;69565;37.974;23.708;2023-05-07T07:30:54;0.55;;;0.30;;
80257;SDS011;69565;37.974;23.708;2023-05-07T07:33:20;0.65;;;0.40;;
80257;SDS011;69565;37.974;23.708;2023-05-07T07:35:45;2.15;;;0.30;;
80257;SDS011;69565;37.974;23.708;2023-05-07T07:38:11;0.68;;;0.40;;
80257;SDS011;69565;37.974;23.708;2023-05-07T07:40:37;0.60;;;0.40;;
80257;SDS011;69565;37.974;23.708;2023-05-07T07:43:02;1.33;;;0.40;;
80257;SDS011;69565;37.974;23.708;2023-05-07T07:45:28;1.02;;;0.30;;
80257;SDS011;69565;37.974;23.708;2023-05-07T07:47:54;1.15;;;0.40;;
80257;SDS011;69565;37.974;23.708;2023-05-07T07:50:20;7.40;;;0.30;;
80257;SDS011;69565;37.974;23.708;2023-05-07T07:52:45;1.27;;;0.45;;
80257;SDS011;69565;37.974;23.708;2023-05-07T07:55:11;3.20;;;0.30;;
80257;SDS011;69565;37.974;23.708;2023-05-07T07:57:37;1.55;;;0.50;;
80257;SDS011;69565;37.974;23.708;2023-05-07T08:00:03;3.53;;;0.47;;
80257;SDS011;69565;37.974;23.708;2023-05-07T08:02:29;2.55;;;0.38;;
80257;SDS011;69565;37.974;23.708;2023-05-07T08:04:55;1.42;;;0.43;;
80257;SDS011;69565;37.974;23.708;2023-05-07T08:07:21;0.60;;;0.47;;
80257;SDS011;69565;37.974;23.708;2023-05-07T08:09:48;1.52;;;0.40;;
80257;SDS011;69565;37.974;23.708;2023-05-07T08:12:14;2.55;;;0.43;;
80257;SDS011;69565;37.974;23.708;2023-05-07T08:14:40;1.00;;;0.40;;
80257;SDS011;69565;37.974;23.708;2023-05-07T08:17:06;1.65;;;0.40;;
80257;SDS011;69565;37.974;23.708;2023-05-07T08:19:32;0.70;;;0.40;;
80257;SDS011;69565;37.974;23.708;2023-05-07T08:21:57;0.98;;;0.50;;
80257;SDS011;69565;37.974;23.708;2023-05-07T08:24:23;0.98;;;0.40;;
80257;SDS011;69565;37.974;23.708;2023-05-07T08:26:49;1.33;;;0.50;;
80257;SDS011;69565;37.974;23.708;2023-05-07T08:29:15;1.27;;;0.40;;
80257;SDS011;69565;37.974;23.708;2023-05-07T08:31:41;2.47;;;0.40;;
80257;SDS011;69565;37.974;23.708;2023-05-07T08:34:06;1.10;;;0.43;;
80257;SDS011;69565;37.974;23.708;2023-05-07T08:36:32;1.20;;;0.43;;
80257;SDS011;69565;37.974;23.708;2023-05-07T08:38:58;1.63;;;0.50;;
80257;SDS011;69565;37.974;23.708;2023-05-07T08:41:25;2.05;;;0.50;;
80257;SDS011;69565;37.974;23.708;2023-05-07T08:43:51;5.18;;;0.40;;
80257;SDS011;69565;37.974;23.708;2023-05-07T08:46:17;2.15;;;0.40;;
80257;SDS011;69565;37.974;23.708;2023-05-07T08:48:44;1.20;;;0.60;;
80257;SDS011;69565;37.974;23.708;2023-05-07T08:51:15;2.85;;;0.40;;
80257;SDS011;69565;37.974;23.708;2023-05-07T08:53:42;0.82;;;0.40;;
80257;SDS011;69565;37.974;23.708;2023-05-07T08:56:08;2.45;;;0.50;;
80257;SDS011;69565;37.974;23.708;2023-05-07T08:58:35;4.15;;;0.43;;
80257;SDS011;69565;37.974;23.708;2023-05-07T09:01:02;0.88;;;0.40;;
80257;SDS011;69565;37.974;23.708;2023-05-07T09:03:32;1.58;;;0.40;;
80257;SDS011;69565;37.974;23.708;2023-05-07T09:05:58;1.25;;;0.43;;
80257;SDS011;69565;37.974;23.708;2023-05-07T09:08:24;1.48;;;0.50;;
80257;SDS011;69565;37.974;23.708;2023-05-07T09:10:52;1.52;;;0.43;;
80257;SDS011;69565;37.974;23.708;2023-05-07T09:13:18;2.35;;;0.50;;
80257;SDS011;69565;37.974;23.708;2023-05-07T09:15:44;1.25;;;0.40;;
80257;SDS011;69565;37.974;23.708;2023-05-07T09:18:10;0.80;;;0.50;;
80257;SDS011;69565;37.974;23.708;2023-05-07T09:20:37;1.05;;;0.43;;
80257;SDS011;69565;37.974;23.708;2023-05-07T09:23:03;1.30;;;0.40;;
80257;SDS011;69565;37.974;23.708;2023-05-07T09:25:29;1.23;;;0.50;;
80257;SDS011;69565;37.974;23.708;2023-05-07T09:27:56;0.98;;;0.45;;
80257;SDS011;69565;37.974;23.708;2023-05-07T09:30:22;0.90;;;0.50;;
80257;SDS011;69565;37.974;23.708;2023-05-07T09:32:52;0.80;;;0.40;;
80257;SDS011;69565;37.974;23.708;2023-05-07T09:35:18;0.93;;;0.47;;
80257;SDS011;69565;37.974;23.708;2023-05-07T09:37:46;2.60;;;0.40;;
80257;SDS011;69565;37.974;23.708;2023-05-07T09:40:25;1.88;;;0.40;;
80257;SDS011;69565;37.974;23.708;2023-05-07T09:42:52;0.70;;;0.40;;
80257;SDS011;69565;37.974;23.708;2023-05-07T09:45:22;0.77;;;0.43;;
80257;SDS011;69565;37.974;23.708;2023-05-07T09:47:53;0.63;;;0.50;;
80257;SDS011;69565;37.974;23.708;2023-05-07T09:50:27;0.80;;;0.50;;
80257;SDS011;69565;37.974;23.708;2023-05-07T09:52:55;1.10;;;0.50;;
80257;SDS011;69565;37.974;23.708;2023-05-07T09:55:21;2.30;;;0.40;;
80257;SDS011;69565;37.974;23.708;2023-05-07T09:57:51;3.13;;;0.40;;
80257;SDS011;69565;37.974;23.708;2023-05-07T10:00:21;0.90;;;0.40;;
80257;SDS011;69565;37.974;23.708;2023-05-07T10:02:48;1.83;;;0.40;;
80257;SDS011;69565;37.974;23.708;2023-05-07T10:05:17;1.05;;;0.40;;
80257;SDS011;69565;37.974;23.708;2023-05-07T10:07:43;0.90;;;0.40;;
80257;SDS011;69565;37.974;23.708;2023-05-07T10:10:10;2.40;;;0.45;;
80257;SDS011;69565;37.974;23.708;2023-05-07T10:12:36;3.42;;;0.40;;
80257;SDS011;69565;37.974;23.708;2023-05-07T10:15:07;3.03;;;0.60;;
80257;SDS011;69565;37.974;23.708;2023-05-07T10:17:36;0.73;;;0.40;;
80257;SDS011;69565;37.974;23.708;2023-05-07T10:20:06;0.68;;;0.40;;
80257;SDS011;69565;37.974;23.708;2023-05-07T10:22:33;0.40;;;0.30;;
80257;SDS011;69565;37.974;23.708;2023-05-07T10:25:06;4.22;;;0.45;;
80257;SDS011;69565;37.974;23.708;2023-05-07T10:27:38;2.95;;;0.40;;
80257;SDS011;69565;37.974;23.708;2023-05-07T10:32:53;1.38;;;0.40;;
80257;SDS011;69565;37.974;23.708;2023-05-07T10:35:26;0.90;;;0.43;;
80257;SDS011;69565;37.974;23.708;2023-05-07T10:37:56;1.15;;;0.50;;
80257;SDS011;69565;37.974;23.708;2023-05-07T10:40:22;1.02;;;0.50;;
80257;SDS011;69565;37.974;23.708;2023-05-07T10:42:58;2.35;;;0.50;;
80257;SDS011;69565;37.974;23.708;2023-05-07T10:45:30;0.70;;;0.50;;
80257;SDS011;69565;37.974;23.708;2023-05-07T10:50:41;2.45;;;0.50;;
80257;SDS011;69565;37.974;23.708;2023-05-07T10:55:47;1.13;;;0.40;;
80257;SDS011;69565;37.974;23.708;2023-05-07T10:58:26;1.25;;;0.35;;
80257;SDS011;69565;37.974;23.708;2023-05-07T11:00:56;0.50;;;0.43;;
80257;SDS011;69565;37.974;23.708;2023-05-07T11:03:24;1.37;;;0.50;;
80257;SDS011;69565;37.974;23.708;2023-05-07T11:08:52;0.90;;;0.50;;
80257;SDS011;69565;37.974;23.708;2023-05-07T11:11:18;0.75;;;0.50;;
80257;SDS011;69565;37.974;23.708;2023-05-07T11:13:47;1.15;;;0.50;;
80257;SDS011;69565;37.974;23.708;2023-05-07T11:16:21;0.90;;;0.50;;
80257;SDS011;69565;37.974;23.708;2023-05-07T11:18:55;2.03;;;0.60;;
80257;SDS011;69565;37.974;23.708;2023-05-07T11:21:34;0.77;;;0.50;;
80257;SDS011;69565;37.974;23.708;2023-05-07T11:24:01;1.08;;;0.40;;
80257;SDS011;69565;37.974;23.708;2023-05-07T11:26:29;1.20;;;0.57;;
80257;SDS011;69565;37.974;23.708;2023-05-07T11:29:10;1.33;;;0.50;;
80257;SDS011;69565;37.974;23.708;2023-05-07T11:31:37;0.90;;;0.40;;
80257;SDS011;69565;37.974;23.708;2023-05-07T11:34:03;2.38;;;0.50;;
80257;SDS011;69565;37.974;23.708;2023-05-07T11:36:30;1.30;;;0.50;;
80257;SDS011;69565;37.974;23.708;2023-05-07T11:38:57;1.33;;;0.50;;
80257;SDS011;69565;37.974;23.708;2023-05-07T11:41:32;1.00;;;0.60;;
80257;SDS011;69565;37.974;23.708;2023-05-07T11:44:00;0.98;;;0.50;;
80257;SDS011;69565;37.974;23.708;2023-05-07T11:46:26;0.82;;;0.50;;
80257;SDS011;69565;37.974;23.708;2023-05-07T11:48:52;1.23;;;0.40;;
80257;SDS011;69565;37.974;23.708;2023-05-07T11:51:22;0.82;;;0.47;;
80257;SDS011;69565;37.974;23.708;2023-05-07T11:53:51;0.93;;;0.50;;
80257;SDS011;69565;37.974;23.708;2023-05-07T11:56:18;2.17;;;0.50;;
80257;SDS011;69565;37.974;23.708;2023-05-07T11:58:44;0.60;;;0.40;;
80257;SDS011;69565;37.974;23.708;2023-05-07T12:01:12;2.30;;;0.50;;
80257;SDS011;69565;37.974;23.708;2023-05-07T12:03:42;1.02;;;0.50;;
80257;SDS011;69565;37.974;23.708;2023-05-07T12:06:11;0.82;;;0.50;;
80257;SDS011;69565;37.974;23.708;2023-05-07T12:08:38;1.50;;;0.50;;
80257;SDS011;69565;37.974;23.708;2023-05-07T12:11:09;0.90;;;0.60;;
80257;SDS011;69565;37.974;23.708;2023-05-07T12:13:38;1.10;;;0.50;;
80257;SDS011;69565;37.974;23.708;2023-05-07T12:16:05;1.30;;;0.50;;
80257;SDS011;69565;37.974;23.708;2023-05-07T12:18:32;0.80;;;0.50;;
80257;SDS011;69565;37.974;23.708;2023-05-07T12:20:59;2.38;;;0.57;;
80257;SDS011;69565;37.974;23.708;2023-05-07T12:23:25;2.55;;;0.60;;
80257;SDS011;69565;37.974;23.708;2023-05-07T12:25:51;1.25;;;0.60;;
80257;SDS011;69565;37.974;23.708;2023-05-07T12:28:17;0.80;;;0.52;;
80257;SDS011;69565;37.974;23.708;2023-05-07T12:30:44;2.55;;;0.60;;
80257;SDS011;69565;37.974;23.708;2023-05-07T12:33:11;0.90;;;0.60;;
80257;SDS011;69565;37.974;23.708;2023-05-07T12:35:41;0.70;;;0.50;;
80257;SDS011;69565;37.974;23.708;2023-05-07T12:38:16;1.45;;;0.60;;
80257;SDS011;69565;37.974;23.708;2023-05-07T12:40:43;1.40;;;0.50;;
80257;SDS011;69565;37.974;23.708;2023-05-07T12:43:25;0.95;;;0.60;;
80257;SDS011;69565;37.974;23.708;2023-05-07T12:45:56;1.08;;;0.50;;
80257;SDS011;69565;37.974;23.708;2023-05-07T12:48:24;0.90;;;0.60;;
80257;SDS011;69565;37.974;23.708;2023-05-07T12:50:55;1.05;;;0.50;;
80257;SDS011;69565;37.974;23.708;2023-05-07T12:53:22;0.70;;;0.55;;
80257;SDS011;69565;37.974;23.708;2023-05-07T12:55:51;1.30;;;0.60;;
80257;SDS011;69565;37.974;23.708;2023-05-07T12:58:29;0.80;;;0.50;;
80257;SDS011;69565;37.974;23.708;2023-05-07T13:00:58;1.98;;;0.60;;
80257;SDS011;69565;37.974;23.708;2023-05-07T13:05:56;2.25;;;0.60;;
80257;SDS011;69565;37.974;23.708;2023-05-07T13:08:25;0.80;;;0.50;;
80257;SDS011;69565;37.974;23.708;2023-05-07T13:10:51;0.70;;;0.50;;
80257;SDS011;69565;37.974;23.708;2023-05-07T13:13:18;1.00;;;0.60;;
80257;SDS011;69565;37.974;23.708;2023-05-07T13:15:45;1.23;;;0.60;;
80257;SDS011;69565;37.974;23.708;2023-05-07T13:18:11;1.38;;;0.57;;
80257;SDS011;69565;37.974;23.708;2023-05-07T13:20:37;0.85;;;0.50;;
80257;SDS011;69565;37.974;23.708;2023-05-07T13:23:02;2.47;;;0.50;;
80257;SDS011;69565;37.974;23.708;2023-05-07T13:25:29;1.00;;;0.50;;
80257;SDS011;69565;37.974;23.708;2023-05-07T13:27:58;3.10;;;0.50;;
80257;SDS011;69565;37.974;23.708;2023-05-07T13:30:24;2.85;;;0.52;;
80257;SDS011;69565;37.974;23.708;2023-05-07T13:32:50;0.98;;;0.50;;
80257;SDS011;69565;37.974;23.708;2023-05-07T13:35:17;0.90;;;0.60;;
80257;SDS011;69565;37.974;23.708;2023-05-07T13:37:43;2.85;;;0.57;;
80257;SDS011;69565;37.974;23.708;2023-05-07T13:40:08;0.70;;;0.50;;
80257;SDS011;69565;37.974;23.708;2023-05-07T13:42:35;0.70;;;0.40;;
80257;SDS011;69565;37.974;23.708;2023-05-07T13:45:00;3.95;;;0.70;;
80257;SDS011;69565;37.974;23.708;2023-05-07T13:47:29;2.78;;;0.50;;
80257;SDS011;69565;37.974;23.708;2023-05-07T13:49:54;1.00;;;0.40;;
80257;SDS011;69565;37.974;23.708;2023-05-07T13:52:20;0.70;;;0.50;;
80257;SDS011;69565;37.974;23.708;2023-05-07T13:54:46;0.88;;;0.60;;
80257;SDS011;69565;37.974;23.708;2023-05-07T13:57:11;1.00;;;0.50;;
80257;SDS011;69565;37.974;23.708;2023-05-07T13:59:37;0.90;;;0.50;;
80257;SDS011;69565;37.974;23.708;2023-05-07T14:02:03;1.20;;;0.73;;
80257;SDS011;69565;37.974;23.708;2023-05-07T14:04:30;1.50;;;0.60;;
80257;SDS011;69565;37.974;23.708;2023-05-07T14:06:56;0.93;;;0.50;;
80257;SDS011;69565;37.974;23.708;2023-05-07T14:09:21;0.60;;;0.50;;
80257;SDS011;69565;37.974;23.708;2023-05-07T14:11:47;1.98;;;0.50;;
80257;SDS011;69565;37.974;23.708;2023-05-07T14:14:16;1.85;;;0.55;;
80257;SDS011;69565;37.974;23.708;2023-05-07T14:16:42;2.67;;;0.50;;
80257;SDS011;69565;37.974;23.708;2023-05-07T14:19:08;0.63;;;0.50;;
80257;SDS011;69565;37.974;23.708;2023-05-07T14:21:33;0.80;;;0.50;;
80257;SDS011;69565;37.974;23.708;2023-05-07T14:23:59;1.17;;;0.52;;
80257;SDS011;69565;37.974;23.708;2023-05-07T14:26:25;1.67;;;0.50;;
80257;SDS011;69565;37.974;23.708;2023-05-07T14:28:52;2.17;;;0.57;;
80257;SDS011;69565;37.974;23.708;2023-05-07T14:31:20;1.00;;;0.60;;
80257;SDS011;69565;37.974;23.708;2023-05-07T14:33:46;0.80;;;0.40;;
80257;SDS011;69565;37.974;23.708;2023-05-07T14:36:12;0.90;;;0.52;;
80257;SDS011;69565;37.974;23.708;2023-05-07T14:38:37;1.23;;;0.60;;
80257;SDS011;69565;37.974;23.708;2023-05-07T14:41:03;1.67;;;0.50;;
80257;SDS011;69565;37.974;23.708;2023-05-07T14:43:29;1.90;;;0.50;;
80257;SDS011;69565;37.974;23.708;2023-05-07T14:45:55;3.08;;;0.50;;